Valley Mills, Texas
Current Conditions -  °F | °C
As of 11:35 AM on Friday 31 Oct 2014 (Local Time) from KPWG Reporting Station
Clear Clear  
Wind Chill: 66°   Ceiling: Unl
Heat Index: 66°   Visibility: 10mi
Dew Point: 45°   Wind: 13mph
Humidity: 46%   Direction: 360°N
Pressure: 30.34"   Gusts: 23mph
Location:  31.66°N, 97.47°W
Report Text: KPWG 311635Z AUTO 36011G20KT 10SM CLR 19/07 A3034 RMK AO1
Loading
Personal Weather Stations






























Interactive Weather Map
Tropical Storm Tracking
New forecast layout! Learn more

10-Day Weather Forecast

Advertisements
Track Severe Weather on mobile